Saturday, November 22, 2014
00:14 UTC
  |  Log In   |  Register Free
Airport Search:

Rwj Airpark Airport
(54T)

Rwj Airpark Airport Diagram
No Airport Diagram Available

FAA data valid effective November 13, 2014 - January 08, 2015 (unless otherwise noted).

 
 
 
 
 
 
 
 
 
 
 
 
 
 

Current Aviation Weather for Rwj Airpark Airport (54T)

METAR data is unavailable for 54T. The nearest METAR location is at KEFD (18.7 nm SW from 54T).

The most recent METAR observation for KEFD was updated at: 2315
METAR Summary (Translated METAR)
KEFD
212250Z 10008KT 6SM BR BKN012 OVC020 18/18 A3012
(18.7 nm SW from 54T)
KHOU
212253Z 11009KT 10SM FEW008 BKN033 OVC048 18/17 A3010 RMK AO2 RAB23E32 SLP198 P0000 T01830172
(23.6 nm SW from 54T)
TAF Summary (Translated TAF)
KEFD
2122/2302 12009KT 6000 BR BKN012 OVC020 QNH3009INS BECMG 2202/2203 12009KT 9999 NSW BKN010 QNH3000INS BECMG 2220/2221 12015G20KT 4800 -TSRA BKN010CB QNH2985INS TX21/2219Z TN16/2212Z AMD 212209
KHOU
(6.7 nm NW from KEFD)
212137Z 2122/2218 10012KT P6SM SCT006 BKN035 OVC045 FM220000 12010KT P6SM SCT015 BKN025 FM220300 13016KT P6SM BKN015 FM220600 13011KT P6SM VCSH BKN015 FM221500 13015G24KT P6SM -RA BKN020 PROB30 2215/2218 3SM SHRA
  Airport Weather Conditions for 54T

Current weather conditions are
not available for 54T


The nearest NOAA weather station
is at EFD, (18.7 nm SW from 54T)
  
 Current Weather at EFD
64° F
Fog/Mist
East winds at 9.2 mph
EFD NOAA Radar

Pressure: 30.12 in
Humidity: 100%
Wind: East at 9.2 MPH (8 KT)
Dew Point: 64.4°F
Visibility: 6.00 mi


Airport Weather Forecast for 54T

Translated METAR and TAF for KEFD
Translated METAR for KEFD (0009 UTC 22 November 2014)
found at http://aviationweather.gov/adds/metars/
 
METAR text: KEFD 212350Z 10011KT 6SM BR BKN015 OVC030 18/18 A3012
Conditions at: KEFD (HOUSTON/ELLINGTO, TX, US) observed 2350 UTC 21 November 2014
Temperature: 18.0°C (64°F)
Dewpoint: 18.0°C (64°F) [RH = 100%]
Pressure (altimeter): 30.12 inches Hg (1020.1 mb)
Winds: from the E (100 degrees) at 13 MPH (11 knots; 5.7 m/s)
Visibility: 6 miles (10 km)
Ceiling: 1500 feet AGL
Clouds: broken clouds at 1500 feet AGL
overcast cloud deck at 3000 feet AGL
Weather: BR  (mist)
Translated TAF for KEFD
Forecast for: KEFD (HOUSTON/ELLINGTO, TX, US)
TAF Text: TAF AMD KEFD 2122/2302 12009KT 6000 BR BKN012 OVC020 QNH3009INS
Forecast period: 2200 UTC 21 November 2014 to 0200 UTC 22 November 2014
Forecast type: FROM: standard forecast or significant change
Winds: from the ESE (120 degrees) at 10 MPH (9 knots; 4.7 m/s)
Visibility: 4 miles (6 km)
Ceiling: 1200 feet AGL
Clouds: broken clouds at 1200 feet AGL
overcast cloud deck at 2000 feet AGL
Weather: BR  (mist)
TAF Text: BECMG 2202/2203 12009KT 9999 NSW BKN010 QNH3000INS
Forecast period: 0200 to 2000 UTC 22 November 2014
Forecast type: BECOMING: Conditions expected to become as follows by 0300 UTC 22 November 2014
Winds: from the ESE (120 degrees) at 10 MPH (9 knots; 4.7 m/s)
Visibility: 6 or more miles (10+ km)
Ceiling: 1000 feet AGL
Clouds: broken clouds at 1000 feet AGL
Weather: NSW  (no significant weather)
TAF Text: BECMG 2220/2221 12015G20KT 4800 -TSRA BKN010CB QNH2985INS TX21/2219Z TN16/2212Z AMD 212209
Forecast period: 2000 UTC 22 November 2014 to 0200 UTC 23 November 2014
Forecast type: BECOMING: Conditions expected to become as follows by 2100 UTC 22 November 2014
Winds: from the ESE (120 degrees) at 17 MPH (15 knots; 7.8 m/s)
gusting to 23 MPH (20 knots; 10.4 m/s)
Visibility: 2.98 miles (4.80 km)
Ceiling: 1000 feet AGL
Clouds: broken clouds at 1000 feet AGL
Weather: -TSRA  (light rain associated with thunderstorm(s))

Find All Airport Services Find A Hotel Find A Rental Car Find A Golf Course Find A Restaurant $100 Hamburger



FBO's on the Field
FBO Company Facility Photos Services Transportation Aviation Fuel Prices: Prices include tax
Catering Weather Repair Courtesy Rental Type 100LL JetA JetA+ MOGAS 8087
 
Bay Area Aviation Inc

This FBO has not yet been rated
FS:Avfuel
Last Updated: Oct-28
Login to update fuel prices
SS:
Contact Bay Area Aviation IncMore FBO Information
 
Add another FBO Facility Photos Catering Weather Repair Courtesy Rental Type 100LL JetA JetA+ MOGAS 8087
Services Transportation Aviation Fuel Prices: Prices include tax


model-print
model-print
model-print
model-print